sensor_id;sensor_type;location;lat;lon;timestamp;P1;durP1;ratioP1;P2;durP2;ratioP2
15281;SDS011;7742;44.320;19.820;2024-02-26T00:01:02;31.17;;;28.37;;
15281;SDS011;7742;44.320;19.820;2024-02-26T00:03:29;29.93;;;27.53;;
15281;SDS011;7742;44.320;19.820;2024-02-26T00:05:58;28.27;;;25.93;;
15281;SDS011;7742;44.320;19.820;2024-02-26T00:08:25;28.67;;;26.37;;
15281;SDS011;7742;44.320;19.820;2024-02-26T00:10:52;28.60;;;26.30;;
15281;SDS011;7742;44.320;19.820;2024-02-26T00:13:20;30.43;;;27.83;;
15281;SDS011;7742;44.320;19.820;2024-02-26T00:15:47;30.23;;;27.83;;
15281;SDS011;7742;44.320;19.820;2024-02-26T00:18:14;30.07;;;27.40;;
15281;SDS011;7742;44.320;19.820;2024-02-26T00:20:41;28.53;;;26.03;;
15281;SDS011;7742;44.320;19.820;2024-02-26T00:23:08;27.10;;;24.97;;
15281;SDS011;7742;44.320;19.820;2024-02-26T00:25:35;28.43;;;26.10;;
15281;SDS011;7742;44.320;19.820;2024-02-26T00:28:03;28.03;;;25.83;;
15281;SDS011;7742;44.320;19.820;2024-02-26T00:30:32;28.73;;;26.40;;
15281;SDS011;7742;44.320;19.820;2024-02-26T00:32:59;29.70;;;27.37;;
15281;SDS011;7742;44.320;19.820;2024-02-26T00:35:26;28.97;;;26.53;;
15281;SDS011;7742;44.320;19.820;2024-02-26T00:37:52;30.50;;;28.17;;
15281;SDS011;7742;44.320;19.820;2024-02-26T00:40:19;31.27;;;28.77;;
15281;SDS011;7742;44.320;19.820;2024-02-26T00:43:02;30.60;;;28.07;;
15281;SDS011;7742;44.320;19.820;2024-02-26T00:45:29;29.37;;;27.07;;
15281;SDS011;7742;44.320;19.820;2024-02-26T00:47:58;28.07;;;25.60;;
15281;SDS011;7742;44.320;19.820;2024-02-26T00:50:29;28.10;;;25.93;;
15281;SDS011;7742;44.320;19.820;2024-02-26T00:52:56;29.33;;;26.97;;
15281;SDS011;7742;44.320;19.820;2024-02-26T00:55:23;29.70;;;27.40;;
15281;SDS011;7742;44.320;19.820;2024-02-26T00:57:50;31.53;;;28.93;;
15281;SDS011;7742;44.320;19.820;2024-02-26T01:00:17;27.83;;;25.43;;
15281;SDS011;7742;44.320;19.820;2024-02-26T01:02:44;31.27;;;28.57;;
15281;SDS011;7742;44.320;19.820;2024-02-26T01:05:13;30.17;;;27.67;;
15281;SDS011;7742;44.320;19.820;2024-02-26T01:07:41;29.53;;;26.93;;
15281;SDS011;7742;44.320;19.820;2024-02-26T01:10:09;29.53;;;27.00;;
15281;SDS011;7742;44.320;19.820;2024-02-26T01:12:36;29.30;;;26.80;;
15281;SDS011;7742;44.320;19.820;2024-02-26T01:15:03;28.93;;;26.77;;
15281;SDS011;7742;44.320;19.820;2024-02-26T01:17:30;29.77;;;27.07;;
15281;SDS011;7742;44.320;19.820;2024-02-26T01:19:58;28.93;;;26.63;;
15281;SDS011;7742;44.320;19.820;2024-02-26T01:22:26;28.57;;;26.07;;
15281;SDS011;7742;44.320;19.820;2024-02-26T01:24:53;29.33;;;26.93;;
15281;SDS011;7742;44.320;19.820;2024-02-26T01:27:22;30.87;;;28.47;;
15281;SDS011;7742;44.320;19.820;2024-02-26T01:29:52;28.73;;;26.33;;
15281;SDS011;7742;44.320;19.820;2024-02-26T01:32:20;97.90;;;29.80;;
15281;SDS011;7742;44.320;19.820;2024-02-26T01:34:47;31.33;;;28.67;;
15281;SDS011;7742;44.320;19.820;2024-02-26T01:37:14;26.63;;;24.47;;
15281;SDS011;7742;44.320;19.820;2024-02-26T01:39:42;27.50;;;25.17;;
15281;SDS011;7742;44.320;19.820;2024-02-26T01:42:09;27.27;;;24.97;;
15281;SDS011;7742;44.320;19.820;2024-02-26T01:44:36;27.97;;;25.70;;
15281;SDS011;7742;44.320;19.820;2024-02-26T01:47:04;27.87;;;25.53;;
15281;SDS011;7742;44.320;19.820;2024-02-26T01:52:15;25.30;;;23.27;;
15281;SDS011;7742;44.320;19.820;2024-02-26T01:54:52;24.53;;;22.50;;
15281;SDS011;7742;44.320;19.820;2024-02-26T01:57:19;26.73;;;24.53;;
15281;SDS011;7742;44.320;19.820;2024-02-26T01:59:46;25.83;;;23.93;;
15281;SDS011;7742;44.320;19.820;2024-02-26T02:02:16;25.53;;;23.33;;
15281;SDS011;7742;44.320;19.820;2024-02-26T02:04:43;25.00;;;23.10;;
15281;SDS011;7742;44.320;19.820;2024-02-26T02:07:14;25.17;;;23.20;;
15281;SDS011;7742;44.320;19.820;2024-02-26T02:09:41;24.20;;;22.23;;
15281;SDS011;7742;44.320;19.820;2024-02-26T02:12:21;27.90;;;25.70;;
15281;SDS011;7742;44.320;19.820;2024-02-26T02:15:01;24.17;;;22.23;;
15281;SDS011;7742;44.320;19.820;2024-02-26T02:17:28;23.07;;;21.27;;
15281;SDS011;7742;44.320;19.820;2024-02-26T02:19:55;22.97;;;21.23;;
15281;SDS011;7742;44.320;19.820;2024-02-26T02:22:28;22.40;;;20.70;;
15281;SDS011;7742;44.320;19.820;2024-02-26T02:24:57;21.30;;;19.40;;
15281;SDS011;7742;44.320;19.820;2024-02-26T02:27:24;23.60;;;21.90;;
15281;SDS011;7742;44.320;19.820;2024-02-26T02:29:51;23.80;;;21.90;;
15281;SDS011;7742;44.320;19.820;2024-02-26T02:32:18;22.87;;;21.00;;
15281;SDS011;7742;44.320;19.820;2024-02-26T02:34:45;22.77;;;20.83;;
15281;SDS011;7742;44.320;19.820;2024-02-26T02:37:13;22.57;;;20.97;;
15281;SDS011;7742;44.320;19.820;2024-02-26T02:39:41;24.10;;;22.30;;
15281;SDS011;7742;44.320;19.820;2024-02-26T02:42:08;26.23;;;24.07;;
15281;SDS011;7742;44.320;19.820;2024-02-26T02:44:37;24.33;;;22.47;;
15281;SDS011;7742;44.320;19.820;2024-02-26T02:47:38;24.83;;;22.77;;
15281;SDS011;7742;44.320;19.820;2024-02-26T02:50:05;26.90;;;24.67;;
15281;SDS011;7742;44.320;19.820;2024-02-26T02:52:32;25.73;;;23.63;;
15281;SDS011;7742;44.320;19.820;2024-02-26T02:55:01;22.93;;;21.23;;
15281;SDS011;7742;44.320;19.820;2024-02-26T02:57:29;24.57;;;22.77;;
15281;SDS011;7742;44.320;19.820;2024-02-26T02:59:56;25.90;;;23.80;;
15281;SDS011;7742;44.320;19.820;2024-02-26T03:02:23;23.90;;;22.20;;
15281;SDS011;7742;44.320;19.820;2024-02-26T03:04:51;26.63;;;24.47;;
15281;SDS011;7742;44.320;19.820;2024-02-26T03:07:18;25.33;;;23.33;;
15281;SDS011;7742;44.320;19.820;2024-02-26T03:09:46;23.60;;;21.67;;
15281;SDS011;7742;44.320;19.820;2024-02-26T03:12:14;24.90;;;23.10;;
15281;SDS011;7742;44.320;19.820;2024-02-26T03:14:41;24.60;;;22.60;;
15281;SDS011;7742;44.320;19.820;2024-02-26T03:17:08;24.17;;;22.37;;
15281;SDS011;7742;44.320;19.820;2024-02-26T03:19:35;23.37;;;21.37;;
15281;SDS011;7742;44.320;19.820;2024-02-26T03:22:02;23.77;;;21.97;;
15281;SDS011;7742;44.320;19.820;2024-02-26T03:24:29;24.03;;;22.17;;
15281;SDS011;7742;44.320;19.820;2024-02-26T03:26:56;23.27;;;21.47;;
15281;SDS011;7742;44.320;19.820;2024-02-26T03:29:24;22.67;;;21.07;;
15281;SDS011;7742;44.320;19.820;2024-02-26T03:31:51;22.13;;;20.43;;
15281;SDS011;7742;44.320;19.820;2024-02-26T03:34:18;25.67;;;23.67;;
15281;SDS011;7742;44.320;19.820;2024-02-26T03:36:45;24.23;;;22.10;;
15281;SDS011;7742;44.320;19.820;2024-02-26T03:39:12;24.00;;;22.30;;
15281;SDS011;7742;44.320;19.820;2024-02-26T03:41:39;25.70;;;23.83;;
15281;SDS011;7742;44.320;19.820;2024-02-26T03:44:06;24.47;;;22.77;;
15281;SDS011;7742;44.320;19.820;2024-02-26T03:46:34;25.07;;;23.07;;
15281;SDS011;7742;44.320;19.820;2024-02-26T03:49:01;24.37;;;22.57;;
15281;SDS011;7742;44.320;19.820;2024-02-26T03:51:50;25.27;;;23.30;;
15281;SDS011;7742;44.320;19.820;2024-02-26T03:54:26;24.93;;;22.77;;
15281;SDS011;7742;44.320;19.820;2024-02-26T03:57:12;25.43;;;23.43;;
15281;SDS011;7742;44.320;19.820;2024-02-26T03:59:39;25.10;;;23.30;;
15281;SDS011;7742;44.320;19.820;2024-02-26T04:02:08;26.07;;;23.70;;
15281;SDS011;7742;44.320;19.820;2024-02-26T04:04:35;24.53;;;22.53;;
15281;SDS011;7742;44.320;19.820;2024-02-26T04:07:02;25.10;;;23.10;;
15281;SDS011;7742;44.320;19.820;2024-02-26T04:09:30;24.27;;;22.13;;
15281;SDS011;7742;44.320;19.820;2024-02-26T04:11:57;24.40;;;22.40;;
15281;SDS011;7742;44.320;19.820;2024-02-26T04:14:24;24.63;;;22.73;;
15281;SDS011;7742;44.320;19.820;2024-02-26T04:16:51;23.60;;;21.83;;
15281;SDS011;7742;44.320;19.820;2024-02-26T04:19:21;24.77;;;22.73;;
15281;SDS011;7742;44.320;19.820;2024-02-26T04:21:48;25.70;;;23.50;;
15281;SDS011;7742;44.320;19.820;2024-02-26T04:24:15;25.90;;;24.00;;
15281;SDS011;7742;44.320;19.820;2024-02-26T04:26:42;25.00;;;22.93;;
15281;SDS011;7742;44.320;19.820;2024-02-26T04:29:09;26.20;;;24.03;;
15281;SDS011;7742;44.320;19.820;2024-02-26T04:31:37;24.07;;;22.27;;
15281;SDS011;7742;44.320;19.820;2024-02-26T04:34:04;24.70;;;22.80;;
15281;SDS011;7742;44.320;19.820;2024-02-26T04:36:33;26.03;;;23.90;;
15281;SDS011;7742;44.320;19.820;2024-02-26T04:39:00;24.80;;;22.73;;
15281;SDS011;7742;44.320;19.820;2024-02-26T04:41:26;25.17;;;22.97;;
15281;SDS011;7742;44.320;19.820;2024-02-26T04:43:57;25.23;;;23.17;;
15281;SDS011;7742;44.320;19.820;2024-02-26T04:46:25;25.00;;;23.00;;
15281;SDS011;7742;44.320;19.820;2024-02-26T04:48:56;25.73;;;23.27;;
15281;SDS011;7742;44.320;19.820;2024-02-26T04:54:29;23.97;;;22.03;;
15281;SDS011;7742;44.320;19.820;2024-02-26T04:56:56;25.97;;;23.83;;
15281;SDS011;7742;44.320;19.820;2024-02-26T04:59:23;26.10;;;23.90;;
15281;SDS011;7742;44.320;19.820;2024-02-26T05:01:50;23.27;;;21.47;;
15281;SDS011;7742;44.320;19.820;2024-02-26T05:04:18;23.57;;;21.67;;
15281;SDS011;7742;44.320;19.820;2024-02-26T05:06:45;23.33;;;21.53;;
15281;SDS011;7742;44.320;19.820;2024-02-26T05:09:12;23.73;;;21.93;;
15281;SDS011;7742;44.320;19.820;2024-02-26T05:11:40;23.17;;;21.27;;
15281;SDS011;7742;44.320;19.820;2024-02-26T05:14:07;22.40;;;20.47;;
15281;SDS011;7742;44.320;19.820;2024-02-26T05:16:34;27.80;;;25.60;;
15281;SDS011;7742;44.320;19.820;2024-02-26T05:19:01;24.13;;;22.20;;
15281;SDS011;7742;44.320;19.820;2024-02-26T05:21:28;21.73;;;20.13;;
15281;SDS011;7742;44.320;19.820;2024-02-26T05:23:55;21.97;;;20.27;;
15281;SDS011;7742;44.320;19.820;2024-02-26T05:26:22;21.00;;;19.40;;
15281;SDS011;7742;44.320;19.820;2024-02-26T05:28:51;20.90;;;19.30;;
15281;SDS011;7742;44.320;19.820;2024-02-26T05:31:18;20.23;;;18.73;;
15281;SDS011;7742;44.320;19.820;2024-02-26T05:33:45;19.97;;;18.50;;
15281;SDS011;7742;44.320;19.820;2024-02-26T05:36:17;19.60;;;18.20;;
15281;SDS011;7742;44.320;19.820;2024-02-26T05:38:46;20.40;;;18.60;;
15281;SDS011;7742;44.320;19.820;2024-02-26T05:41:16;18.70;;;17.30;;
15281;SDS011;7742;44.320;19.820;2024-02-26T05:43:48;17.43;;;16.10;;
15281;SDS011;7742;44.320;19.820;2024-02-26T05:46:17;19.13;;;17.67;;
15281;SDS011;7742;44.320;19.820;2024-02-26T05:51:27;20.53;;;18.93;;
15281;SDS011;7742;44.320;19.820;2024-02-26T05:53:54;20.47;;;18.97;;
15281;SDS011;7742;44.320;19.820;2024-02-26T05:59:22;19.00;;;17.60;;
15281;SDS011;7742;44.320;19.820;2024-02-26T06:01:53;17.50;;;16.40;;
15281;SDS011;7742;44.320;19.820;2024-02-26T06:04:20;19.47;;;17.97;;
15281;SDS011;7742;44.320;19.820;2024-02-26T06:06:47;18.17;;;16.97;;
15281;SDS011;7742;44.320;19.820;2024-02-26T06:09:17;19.23;;;17.53;;
15281;SDS011;7742;44.320;19.820;2024-02-26T06:14:47;19.03;;;17.73;;
15281;SDS011;7742;44.320;19.820;2024-02-26T06:17:15;18.63;;;17.23;;
15281;SDS011;7742;44.320;19.820;2024-02-26T06:19:42;17.10;;;15.90;;
15281;SDS011;7742;44.320;19.820;2024-02-26T06:22:09;15.30;;;14.23;;
15281;SDS011;7742;44.320;19.820;2024-02-26T06:24:36;15.27;;;14.17;;
15281;SDS011;7742;44.320;19.820;2024-02-26T06:27:03;15.03;;;14.03;;
15281;SDS011;7742;44.320;19.820;2024-02-26T06:29:30;17.93;;;16.53;;
15281;SDS011;7742;44.320;19.820;2024-02-26T06:31:56;18.70;;;17.47;;
15281;SDS011;7742;44.320;19.820;2024-02-26T06:34:25;16.73;;;15.33;;
15281;SDS011;7742;44.320;19.820;2024-02-26T06:36:52;19.00;;;17.63;;
15281;SDS011;7742;44.320;19.820;2024-02-26T06:39:19;18.73;;;17.50;;
15281;SDS011;7742;44.320;19.820;2024-02-26T06:41:46;17.97;;;16.57;;
15281;SDS011;7742;44.320;19.820;2024-02-26T06:44:13;17.37;;;16.27;;
15281;SDS011;7742;44.320;19.820;2024-02-26T06:46:40;18.87;;;17.47;;
15281;SDS011;7742;44.320;19.820;2024-02-26T06:49:07;16.80;;;15.50;;
15281;SDS011;7742;44.320;19.820;2024-02-26T06:51:35;17.30;;;16.13;;
15281;SDS011;7742;44.320;19.820;2024-02-26T06:54:02;18.43;;;17.13;;
15281;SDS011;7742;44.320;19.820;2024-02-26T06:56:29;17.60;;;16.40;;
15281;SDS011;7742;44.320;19.820;2024-02-26T06:58:56;19.23;;;18.03;;
15281;SDS011;7742;44.320;19.820;2024-02-26T07:01:23;18.47;;;17.17;;
15281;SDS011;7742;44.320;19.820;2024-02-26T07:03:50;15.27;;;14.17;;
15281;SDS011;7742;44.320;19.820;2024-02-26T07:06:17;19.20;;;18.00;;
15281;SDS011;7742;44.320;19.820;2024-02-26T07:08:45;17.67;;;16.47;;
15281;SDS011;7742;44.320;19.820;2024-02-26T07:11:12;18.27;;;16.97;;
15281;SDS011;7742;44.320;19.820;2024-02-26T07:13:39;19.23;;;17.93;;
15281;SDS011;7742;44.320;19.820;2024-02-26T07:16:08;18.43;;;17.23;;
15281;SDS011;7742;44.320;19.820;2024-02-26T07:18:35;14.80;;;13.83;;
15281;SDS011;7742;44.320;19.820;2024-02-26T07:21:02;14.23;;;13.33;;
15281;SDS011;7742;44.320;19.820;2024-02-26T07:23:29;14.13;;;13.33;;
15281;SDS011;7742;44.320;19.820;2024-02-26T07:25:58;13.87;;;12.87;;
15281;SDS011;7742;44.320;19.820;2024-02-26T07:28:25;13.27;;;12.47;;
15281;SDS011;7742;44.320;19.820;2024-02-26T07:30:52;13.93;;;12.93;;
15281;SDS011;7742;44.320;19.820;2024-02-26T07:33:19;13.97;;;12.87;;
15281;SDS011;7742;44.320;19.820;2024-02-26T07:35:46;14.60;;;13.60;;
15281;SDS011;7742;44.320;19.820;2024-02-26T07:38:13;15.23;;;14.30;;
15281;SDS011;7742;44.320;19.820;2024-02-26T07:40:40;15.00;;;14.00;;
15281;SDS011;7742;44.320;19.820;2024-02-26T07:43:09;14.97;;;13.87;;
15281;SDS011;7742;44.320;19.820;2024-02-26T07:45:36;13.77;;;12.97;;
15281;SDS011;7742;44.320;19.820;2024-02-26T07:48:03;14.80;;;13.70;;
15281;SDS011;7742;44.320;19.820;2024-02-26T07:50:30;15.50;;;14.37;;
15281;SDS011;7742;44.320;19.820;2024-02-26T07:52:56;15.90;;;14.83;;
15281;SDS011;7742;44.320;19.820;2024-02-26T07:55:23;16.43;;;15.23;;
15281;SDS011;7742;44.320;19.820;2024-02-26T07:57:50;16.37;;;15.17;;
15281;SDS011;7742;44.320;19.820;2024-02-26T08:00:19;15.90;;;14.60;;
15281;SDS011;7742;44.320;19.820;2024-02-26T08:02:46;16.50;;;15.20;;
15281;SDS011;7742;44.320;19.820;2024-02-26T08:05:13;15.63;;;14.53;;
15281;SDS011;7742;44.320;19.820;2024-02-26T08:07:40;14.90;;;14.00;;
15281;SDS011;7742;44.320;19.820;2024-02-26T08:10:08;15.43;;;14.43;;
15281;SDS011;7742;44.320;19.820;2024-02-26T08:12:35;15.37;;;14.30;;
15281;SDS011;7742;44.320;19.820;2024-02-26T08:15:02;13.77;;;12.87;;
15281;SDS011;7742;44.320;19.820;2024-02-26T08:17:31;12.70;;;11.90;;
15281;SDS011;7742;44.320;19.820;2024-02-26T08:19:58;14.33;;;13.43;;
15281;SDS011;7742;44.320;19.820;2024-02-26T08:22:25;15.20;;;14.30;;
15281;SDS011;7742;44.320;19.820;2024-02-26T08:24:52;15.27;;;14.27;;
15281;SDS011;7742;44.320;19.820;2024-02-26T08:27:19;15.70;;;14.77;;
15281;SDS011;7742;44.320;19.820;2024-02-26T08:29:46;14.23;;;13.43;;
15281;SDS011;7742;44.320;19.820;2024-02-26T08:32:13;14.27;;;13.37;;
15281;SDS011;7742;44.320;19.820;2024-02-26T08:34:41;14.00;;;13.10;;
15281;SDS011;7742;44.320;19.820;2024-02-26T08:37:08;13.73;;;12.83;;
15281;SDS011;7742;44.320;19.820;2024-02-26T08:39:35;13.53;;;12.73;;
15281;SDS011;7742;44.320;19.820;2024-02-26T08:42:02;13.60;;;12.67;;
15281;SDS011;7742;44.320;19.820;2024-02-26T08:44:29;13.27;;;12.37;;
15281;SDS011;7742;44.320;19.820;2024-02-26T08:46:56;12.27;;;11.40;;
15281;SDS011;7742;44.320;19.820;2024-02-26T08:49:23;15.07;;;14.17;;
15281;SDS011;7742;44.320;19.820;2024-02-26T08:51:52;15.23;;;14.10;;
15281;SDS011;7742;44.320;19.820;2024-02-26T08:54:19;16.40;;;15.00;;
15281;SDS011;7742;44.320;19.820;2024-02-26T08:56:46;16.87;;;15.67;;
15281;SDS011;7742;44.320;19.820;2024-02-26T08:59:13;14.10;;;13.30;;
15281;SDS011;7742;44.320;19.820;2024-02-26T09:01:41;13.73;;;12.73;;
15281;SDS011;7742;44.320;19.820;2024-02-26T09:04:08;13.47;;;12.53;;
15281;SDS011;7742;44.320;19.820;2024-02-26T09:06:35;12.20;;;11.40;;
15281;SDS011;7742;44.320;19.820;2024-02-26T09:09:04;13.00;;;12.03;;
15281;SDS011;7742;44.320;19.820;2024-02-26T09:11:31;12.97;;;12.17;;
15281;SDS011;7742;44.320;19.820;2024-02-26T09:13:57;12.13;;;11.20;;
15281;SDS011;7742;44.320;19.820;2024-02-26T09:16:24;12.47;;;11.50;;
15281;SDS011;7742;44.320;19.820;2024-02-26T09:18:51;12.60;;;11.90;;
15281;SDS011;7742;44.320;19.820;2024-02-26T09:21:18;12.77;;;11.87;;
15281;SDS011;7742;44.320;19.820;2024-02-26T09:23:48;14.40;;;13.40;;
15281;SDS011;7742;44.320;19.820;2024-02-26T09:26:17;14.57;;;13.47;;
15281;SDS011;7742;44.320;19.820;2024-02-26T09:28:45;16.60;;;15.30;;
15281;SDS011;7742;44.320;19.820;2024-02-26T09:31:12;18.07;;;16.53;;
15281;SDS011;7742;44.320;19.820;2024-02-26T09:33:41;16.97;;;15.87;;
15281;SDS011;7742;44.320;19.820;2024-02-26T09:36:08;16.20;;;15.10;;
15281;SDS011;7742;44.320;19.820;2024-02-26T09:38:36;15.93;;;14.73;;
15281;SDS011;7742;44.320;19.820;2024-02-26T09:41:03;16.60;;;15.43;;
15281;SDS011;7742;44.320;19.820;2024-02-26T09:43:33;17.87;;;16.70;;
15281;SDS011;7742;44.320;19.820;2024-02-26T09:46:00;20.73;;;19.13;;
15281;SDS011;7742;44.320;19.820;2024-02-26T09:48:28;16.33;;;15.23;;
15281;SDS011;7742;44.320;19.820;2024-02-26T09:50:56;17.83;;;16.63;;
15281;SDS011;7742;44.320;19.820;2024-02-26T09:53:23;17.93;;;16.73;;
15281;SDS011;7742;44.320;19.820;2024-02-26T09:55:49;18.47;;;17.37;;
15281;SDS011;7742;44.320;19.820;2024-02-26T09:58:17;17.60;;;16.40;;
15281;SDS011;7742;44.320;19.820;2024-02-26T10:00:47;14.77;;;13.77;;
15281;SDS011;7742;44.320;19.820;2024-02-26T10:03:16;14.97;;;13.97;;
15281;SDS011;7742;44.320;19.820;2024-02-26T10:05:44;17.20;;;16.10;;
15281;SDS011;7742;44.320;19.820;2024-02-26T10:08:12;16.57;;;15.57;;
15281;SDS011;7742;44.320;19.820;2024-02-26T10:10:39;15.90;;;14.90;;
15281;SDS011;7742;44.320;19.820;2024-02-26T10:13:06;15.37;;;14.37;;
15281;SDS011;7742;44.320;19.820;2024-02-26T10:15:35;14.07;;;13.17;;
15281;SDS011;7742;44.320;19.820;2024-02-26T10:18:05;15.87;;;14.97;;
15281;SDS011;7742;44.320;19.820;2024-02-26T10:20:32;15.70;;;14.50;;
15281;SDS011;7742;44.320;19.820;2024-02-26T10:23:02;13.40;;;12.50;;
15281;SDS011;7742;44.320;19.820;2024-02-26T10:25:29;16.57;;;15.50;;
15281;SDS011;7742;44.320;19.820;2024-02-26T10:27:57;15.73;;;14.63;;
15281;SDS011;7742;44.320;19.820;2024-02-26T10:30:27;16.50;;;15.17;;
15281;SDS011;7742;44.320;19.820;2024-02-26T10:32:54;16.37;;;15.27;;
15281;SDS011;7742;44.320;19.820;2024-02-26T10:35:22;15.43;;;14.53;;
15281;SDS011;7742;44.320;19.820;2024-02-26T10:37:50;14.37;;;13.37;;
15281;SDS011;7742;44.320;19.820;2024-02-26T10:40:18;16.60;;;15.70;;
15281;SDS011;7742;44.320;19.820;2024-02-26T10:42:44;16.03;;;14.93;;
15281;SDS011;7742;44.320;19.820;2024-02-26T10:45:11;17.60;;;16.47;;
15281;SDS011;7742;44.320;19.820;2024-02-26T10:47:39;16.23;;;15.20;;
15281;SDS011;7742;44.320;19.820;2024-02-26T10:50:06;15.13;;;14.33;;
15281;SDS011;7742;44.320;19.820;2024-02-26T10:52:35;15.30;;;14.30;;
15281;SDS011;7742;44.320;19.820;2024-02-26T10:55:03;14.63;;;13.80;;
15281;SDS011;7742;44.320;19.820;2024-02-26T10:57:31;16.03;;;15.13;;
15281;SDS011;7742;44.320;19.820;2024-02-26T11:00:00;16.17;;;15.27;;
15281;SDS011;7742;44.320;19.820;2024-02-26T11:02:29;14.10;;;13.30;;
15281;SDS011;7742;44.320;19.820;2024-02-26T11:04:57;14.13;;;13.33;;
15281;SDS011;7742;44.320;19.820;2024-02-26T11:07:25;16.87;;;15.67;;
15281;SDS011;7742;44.320;19.820;2024-02-26T11:09:55;14.50;;;13.63;;
15281;SDS011;7742;44.320;19.820;2024-02-26T11:12:23;14.60;;;13.60;;
15281;SDS011;7742;44.320;19.820;2024-02-26T11:14:51;15.00;;;13.97;;
15281;SDS011;7742;44.320;19.820;2024-02-26T11:17:22;13.53;;;12.83;;
15281;SDS011;7742;44.320;19.820;2024-02-26T11:19:49;13.83;;;12.93;;
15281;SDS011;7742;44.320;19.820;2024-02-26T11:22:16;14.83;;;13.83;;
15281;SDS011;7742;44.320;19.820;2024-02-26T11:24:44;15.80;;;14.83;;
15281;SDS011;7742;44.320;19.820;2024-02-26T11:27:12;14.27;;;13.27;;
15281;SDS011;7742;44.320;19.820;2024-02-26T11:29:42;14.40;;;13.50;;
15281;SDS011;7742;44.320;19.820;2024-02-26T11:32:09;12.33;;;11.63;;
15281;SDS011;7742;44.320;19.820;2024-02-26T11:34:36;12.17;;;11.47;;
15281;SDS011;7742;44.320;19.820;2024-02-26T11:37:10;13.93;;;12.93;;
15281;SDS011;7742;44.320;19.820;2024-02-26T11:39:37;11.60;;;11.00;;
15281;SDS011;7742;44.320;19.820;2024-02-26T11:42:05;14.10;;;13.30;;
15281;SDS011;7742;44.320;19.820;2024-02-26T11:44:33;13.30;;;12.50;;
15281;SDS011;7742;44.320;19.820;2024-02-26T11:47:09;12.80;;;12.10;;
15281;SDS011;7742;44.320;19.820;2024-02-26T11:49:36;13.97;;;13.27;;
15281;SDS011;7742;44.320;19.820;2024-02-26T11:52:04;15.57;;;14.23;;
15281;SDS011;7742;44.320;19.820;2024-02-26T11:54:38;12.90;;;12.30;;
15281;SDS011;7742;44.320;19.820;2024-02-26T11:57:19;13.60;;;13.00;;
15281;SDS011;7742;44.320;19.820;2024-02-26T11:59:47;12.90;;;12.20;;
15281;SDS011;7742;44.320;19.820;2024-02-26T12:04:57;14.80;;;14.00;;
15281;SDS011;7742;44.320;19.820;2024-02-26T12:07:24;16.57;;;15.57;;
15281;SDS011;7742;44.320;19.820;2024-02-26T12:09:52;13.57;;;12.67;;
15281;SDS011;7742;44.320;19.820;2024-02-26T12:12:19;16.10;;;15.00;;
15281;SDS011;7742;44.320;19.820;2024-02-26T12:14:51;13.80;;;13.10;;
15281;SDS011;7742;44.320;19.820;2024-02-26T12:17:19;16.87;;;15.40;;
15281;SDS011;7742;44.320;19.820;2024-02-26T12:19:46;12.97;;;12.17;;
15281;SDS011;7742;44.320;19.820;2024-02-26T12:22:13;14.63;;;13.63;;
15281;SDS011;7742;44.320;19.820;2024-02-26T12:24:41;16.47;;;15.30;;
15281;SDS011;7742;44.320;19.820;2024-02-26T12:27:08;19.17;;;17.50;;
15281;SDS011;7742;44.320;19.820;2024-02-26T12:29:36;13.17;;;12.43;;
15281;SDS011;7742;44.320;19.820;2024-02-26T12:32:04;14.70;;;13.90;;
15281;SDS011;7742;44.320;19.820;2024-02-26T12:34:33;12.80;;;12.00;;
15281;SDS011;7742;44.320;19.820;2024-02-26T12:37:00;19.03;;;17.27;;
15281;SDS011;7742;44.320;19.820;2024-02-26T12:39:28;13.97;;;13.07;;
15281;SDS011;7742;44.320;19.820;2024-02-26T12:41:57;15.00;;;14.10;;
15281;SDS011;7742;44.320;19.820;2024-02-26T12:44:24;15.07;;;13.97;;
15281;SDS011;7742;44.320;19.820;2024-02-26T12:46:52;12.90;;;12.30;;
15281;SDS011;7742;44.320;19.820;2024-02-26T12:49:27;13.20;;;12.50;;
15281;SDS011;7742;44.320;19.820;2024-02-26T12:51:54;12.83;;;12.10;;
15281;SDS011;7742;44.320;19.820;2024-02-26T12:54:26;14.63;;;13.63;;
15281;SDS011;7742;44.320;19.820;2024-02-26T12:56:53;14.40;;;13.50;;
15281;SDS011;7742;44.320;19.820;2024-02-26T12:59:20;13.17;;;12.47;;
15281;SDS011;7742;44.320;19.820;2024-02-26T13:01:47;13.73;;;12.80;;
15281;SDS011;7742;44.320;19.820;2024-02-26T13:04:14;12.50;;;11.90;;
15281;SDS011;7742;44.320;19.820;2024-02-26T13:06:44;14.10;;;13.30;;
15281;SDS011;7742;44.320;19.820;2024-02-26T13:09:12;13.97;;;13.13;;
15281;SDS011;7742;44.320;19.820;2024-02-26T13:11:39;14.37;;;13.47;;
15281;SDS011;7742;44.320;19.820;2024-02-26T13:14:09;12.63;;;11.83;;
15281;SDS011;7742;44.320;19.820;2024-02-26T13:16:45;13.53;;;12.73;;
15281;SDS011;7742;44.320;19.820;2024-02-26T13:19:20;12.63;;;11.77;;
15281;SDS011;7742;44.320;19.820;2024-02-26T13:21:49;12.13;;;11.43;;
15281;SDS011;7742;44.320;19.820;2024-02-26T13:24:16;14.40;;;13.53;;
15281;SDS011;7742;44.320;19.820;2024-02-26T13:26:45;12.80;;;11.90;;
15281;SDS011;7742;44.320;19.820;2024-02-26T13:29:16;13.33;;;12.63;;
15281;SDS011;7742;44.320;19.820;2024-02-26T13:31:43;13.63;;;12.93;;
15281;SDS011;7742;44.320;19.820;2024-02-26T13:34:10;12.03;;;11.33;;
15281;SDS011;7742;44.320;19.820;2024-02-26T13:36:37;14.53;;;13.70;;
15281;SDS011;7742;44.320;19.820;2024-02-26T13:39:05;14.47;;;13.73;;
15281;SDS011;7742;44.320;19.820;2024-02-26T13:41:38;15.13;;;14.27;;
15281;SDS011;7742;44.320;19.820;2024-02-26T13:44:06;12.20;;;11.33;;
15281;SDS011;7742;44.320;19.820;2024-02-26T13:46:33;13.53;;;12.63;;
15281;SDS011;7742;44.320;19.820;2024-02-26T13:49:00;12.93;;;12.03;;
15281;SDS011;7742;44.320;19.820;2024-02-26T13:51:27;12.90;;;12.10;;
15281;SDS011;7742;44.320;19.820;2024-02-26T13:54:00;13.40;;;12.60;;
15281;SDS011;7742;44.320;19.820;2024-02-26T13:56:29;14.37;;;13.67;;
15281;SDS011;7742;44.320;19.820;2024-02-26T13:59:01;13.77;;;13.03;;
15281;SDS011;7742;44.320;19.820;2024-02-26T14:01:28;13.20;;;12.20;;
15281;SDS011;7742;44.320;19.820;2024-02-26T14:03:55;13.40;;;12.57;;
15281;SDS011;7742;44.320;19.820;2024-02-26T14:06:22;13.40;;;12.60;;
15281;SDS011;7742;44.320;19.820;2024-02-26T14:08:49;13.90;;;13.10;;
15281;SDS011;7742;44.320;19.820;2024-02-26T14:11:16;14.90;;;13.73;;
15281;SDS011;7742;44.320;19.820;2024-02-26T14:13:45;13.97;;;13.17;;
15281;SDS011;7742;44.320;19.820;2024-02-26T14:16:13;14.00;;;13.30;;
15281;SDS011;7742;44.320;19.820;2024-02-26T14:18:39;10.53;;;9.63;;
15281;SDS011;7742;44.320;19.820;2024-02-26T14:21:09;14.17;;;13.17;;
15281;SDS011;7742;44.320;19.820;2024-02-26T14:23:36;13.80;;;13.00;;
15281;SDS011;7742;44.320;19.820;2024-02-26T14:26:03;13.70;;;12.77;;
15281;SDS011;7742;44.320;19.820;2024-02-26T14:28:30;15.57;;;14.67;;
15281;SDS011;7742;44.320;19.820;2024-02-26T14:30:59;14.23;;;13.33;;
15281;SDS011;7742;44.320;19.820;2024-02-26T14:33:26;12.40;;;11.60;;
15281;SDS011;7742;44.320;19.820;2024-02-26T14:35:53;12.37;;;11.47;;
15281;SDS011;7742;44.320;19.820;2024-02-26T14:38:20;12.77;;;11.80;;
15281;SDS011;7742;44.320;19.820;2024-02-26T14:40:49;14.17;;;13.37;;
15281;SDS011;7742;44.320;19.820;2024-02-26T14:43:16;15.33;;;14.17;;